Time;durP1;ratioP1;P1;durP2;ratioP2;P2;SDS_P1;SDS_P2;PMS_P1;PMS_P2;Temp;Humidity;BMP_temperature;BMP_pressure;BME280_temperature;BME280_humidity;BME280_pressure;Samples;Min_cycle;Max_cycle;Signal;HPM_P1;HPM_P2
2021/06/13 00:02:07;;;;;;;3.65;1.67;;;14.10;99.90;;;;;;4998622;28;20058;-85
2021/06/13 00:04:34;;;;;;;11.05;2.28;;;14.10;99.90;;;;;;5005020;28;20049;-86
2021/06/13 00:07:01;;;;;;;11.18;2.63;;;14.10;99.90;;;;;;5027839;28;20081;-85
2021/06/13 00:09:27;;;;;;;5.07;1.50;;;14.00;99.90;;;;;;4997964;28;20050;-85
2021/06/13 00:11:54;;;;;;;6.00;1.98;;;14.10;99.90;;;;;;4997857;28;20050;-86
2021/06/13 00:14:22;;;;;;;8.90;2.25;;;14.10;99.90;;;;;;5015248;28;20053;-85
2021/06/13 00:16:49;;;;;;;7.95;1.55;;;14.00;99.90;;;;;;4997653;28;20056;-87
2021/06/13 00:19:17;;;;;;;14.32;2.97;;;14.00;99.90;;;;;;5015887;28;20434;-90
2021/06/13 00:21:44;;;;;;;9.55;2.25;;;14.00;99.90;;;;;;4998323;28;20136;-86
2021/06/13 00:24:11;;;;;;;6.00;1.67;;;13.90;99.90;;;;;;4998030;28;20049;-87
2021/06/13 00:26:39;;;;;;;8.50;2.20;;;13.80;99.90;;;;;;4998032;28;20041;-87
2021/06/13 00:29:06;;;;;;;4.47;1.70;;;13.70;99.90;;;;;;4998020;28;20418;-86
2021/06/13 00:31:33;;;;;;;12.20;2.63;;;13.60;99.90;;;;;;4997615;28;20041;-86
2021/06/13 00:34:00;;;;;;;10.02;1.67;;;13.60;99.90;;;;;;4997597;28;20454;-84
2021/06/13 00:36:27;;;;;;;4.28;1.30;;;13.60;99.90;;;;;;5014884;28;20042;-86
2021/06/13 00:38:54;;;;;;;7.32;1.77;;;13.70;99.90;;;;;;4997336;28;20123;-86
2021/06/13 00:41:22;;;;;;;5.78;2.00;;;13.60;99.90;;;;;;4997772;28;20050;-87
2021/06/13 00:43:49;;;;;;;4.53;1.90;;;13.40;99.90;;;;;;4996995;28;20072;-86
2021/06/13 00:46:17;;;;;;;11.13;1.88;;;13.20;99.90;;;;;;4997813;28;20054;-87
2021/06/13 00:48:44;;;;;;;6.10;1.95;;;13.10;99.90;;;;;;5008680;28;20079;-88
2021/06/13 00:51:11;;;;;;;5.85;2.70;;;13.00;99.90;;;;;;5015362;28;20402;-87
2021/06/13 00:53:38;;;;;;;9.05;2.67;;;12.90;99.90;;;;;;5014905;28;20140;-87
2021/06/13 00:56:05;;;;;;;11.50;3.00;;;12.90;99.90;;;;;;4997562;28;20046;-86
2021/06/13 00:58:32;;;;;;;15.85;2.70;;;12.90;99.90;;;;;;4997595;28;20050;-86
2021/06/13 01:00:59;;;;;;;8.50;2.20;;;12.80;99.90;;;;;;4997240;28;20388;-86
2021/06/13 01:03:26;;;;;;;8.90;2.72;;;12.70;99.90;;;;;;4997442;28;20056;-87
2021/06/13 01:05:53;;;;;;;8.45;2.85;;;12.60;99.90;;;;;;4997725;28;20057;-87
2021/06/13 01:08:23;;;;;;;5.05;2.58;;;12.60;99.90;;;;;;5014449;28;20053;-87
2021/06/13 01:11:14;;;;;;;6.68;2.08;;;12.40;99.90;;;;;;5014429;28;20050;-87
2021/06/13 01:13:47;;;;;;;10.07;2.42;;;12.30;99.90;;;;;;4997213;28;20129;-86
2021/06/13 01:16:28;;;;;;;8.18;3.08;;;12.00;99.90;;;;;;4997326;28;20054;-87
2021/06/13 01:19:16;;;;;;;10.68;2.70;;;11.90;99.90;;;;;;4997174;28;20120;-87
2021/06/13 01:22:08;;;;;;;6.03;2.72;;;11.80;99.90;;;;;;4998010;28;20505;-87
2021/06/13 01:25:02;;;;;;;9.90;2.78;;;11.80;99.90;;;;;;5014396;28;20033;-87
2021/06/13 01:27:59;;;;;;;9.55;3.67;;;11.80;99.90;;;;;;4998279;28;20045;-86
2021/06/13 01:30:29;;;;;;;4.20;2.78;;;11.90;99.90;;;;;;5014411;28;20042;-86
2021/06/13 01:32:58;;;;;;;4.90;2.33;;;11.80;99.90;;;;;;4996681;28;20037;-87
2021/06/13 01:35:26;;;;;;;7.35;2.40;;;11.80;99.90;;;;;;4996862;28;20053;-87
2021/06/13 01:37:56;;;;;;;3.20;2.25;;;11.90;99.90;;;;;;4996890;28;20467;-87
2021/06/13 01:40:29;;;;;;;3.20;2.25;;;11.80;99.90;;;;;;4997148;28;20049;-87
2021/06/13 01:42:58;;;;;;;6.43;2.28;;;11.70;99.90;;;;;;4996764;28;20056;-87
2021/06/13 01:45:29;;;;;;;5.82;2.60;;;11.60;99.90;;;;;;4996640;28;20076;-87
2021/06/13 01:47:56;;;;;;;4.78;2.42;;;11.50;99.90;;;;;;4996826;28;20482;-87
2021/06/13 01:50:27;;;;;;;5.93;2.45;;;11.40;99.90;;;;;;5013778;28;20522;-87
2021/06/13 01:52:55;;;;;;;7.53;3.10;;;11.30;99.90;;;;;;4996872;28;20056;-87
2021/06/13 01:55:24;;;;;;;6.47;2.67;;;11.20;99.90;;;;;;4996699;28;20513;-86
2021/06/13 01:57:53;;;;;;;4.88;2.60;;;11.20;99.90;;;;;;4996736;28;20054;-87
2021/06/13 02:00:21;;;;;;;6.22;2.90;;;11.20;99.90;;;;;;4996991;28;20050;-87
2021/06/13 02:02:52;;;;;;;7.38;3.00;;;11.10;99.90;;;;;;4996472;28;20061;-87
2021/06/13 02:05:22;;;;;;;4.53;3.28;;;11.30;99.90;;;;;;4996421;28;20049;-87
2021/06/13 02:07:50;;;;;;;6.85;2.67;;;11.30;99.90;;;;;;5013536;28;20145;-87
2021/06/13 02:10:20;;;;;;;4.68;2.95;;;11.20;99.90;;;;;;4996530;28;20072;-87
2021/06/13 02:12:49;;;;;;;7.55;3.10;;;11.20;99.90;;;;;;5013741;28;20054;-87
2021/06/13 02:15:19;;;;;;;8.63;3.20;;;11.20;99.90;;;;;;5013763;28;20538;-87
2021/06/13 02:17:48;;;;;;;7.05;2.90;;;11.20;99.90;;;;;;4996354;28;20058;-87
2021/06/13 02:20:20;;;;;;;7.90;3.00;;;11.30;99.90;;;;;;5013627;28;20056;-87
2021/06/13 02:22:48;;;;;;;7.65;3.13;;;11.20;99.90;;;;;;4996268;28;20060;-87
2021/06/13 02:25:17;;;;;;;4.18;2.70;;;11.30;99.90;;;;;;4996240;28;20064;-87
2021/06/13 02:27:44;;;;;;;6.80;2.78;;;11.30;99.90;;;;;;4996323;28;20045;-87
2021/06/13 02:30:12;;;;;;;8.20;3.13;;;11.30;99.90;;;;;;4996491;28;20053;-87
2021/06/13 02:32:42;;;;;;;8.88;3.10;;;11.20;99.90;;;;;;4996307;28;20049;-87
2021/06/13 02:35:11;;;;;;;8.45;3.00;;;11.20;99.90;;;;;;4996195;28;20045;-86
2021/06/13 02:37:42;;;;;;;8.00;3.13;;;11.30;99.90;;;;;;4996371;28;20060;-88
2021/06/13 02:40:11;;;;;;;6.63;3.63;;;11.50;99.90;;;;;;4996755;28;20078;-88
2021/06/13 02:42:38;;;;;;;8.52;2.83;;;11.60;99.90;;;;;;5006716;28;20074;-87
2021/06/13 02:45:10;;;;;;;7.30;2.92;;;11.60;99.90;;;;;;5005163;28;20133;-87
2021/06/13 02:47:37;;;;;;;9.57;3.00;;;11.70;99.90;;;;;;4996198;28;20141;-88
2021/06/13 02:50:06;;;;;;;9.35;3.03;;;11.80;99.90;;;;;;4996245;28;20452;-87
2021/06/13 02:52:46;;;;;;;5.93;3.00;;;11.90;99.90;;;;;;5013439;28;20081;-88
2021/06/13 02:55:19;;;;;;;4.80;2.47;;;12.00;99.90;;;;;;4996089;28;20590;-88
2021/06/13 02:57:54;;;;;;;8.98;2.90;;;12.10;99.90;;;;;;4996324;28;20121;-88
2021/06/13 03:00:24;;;;;;;8.02;3.28;;;12.10;99.90;;;;;;4996548;28;20061;-88
2021/06/13 03:02:53;;;;;;;8.98;3.70;;;12.20;99.90;;;;;;4998234;28;20140;-88
2021/06/13 03:05:24;;;;;;;7.05;3.08;;;12.20;99.90;;;;;;4999882;28;20054;-87
2021/06/13 03:07:52;;;;;;;7.82;2.85;;;12.20;99.90;;;;;;4999554;28;20414;-88
2021/06/13 03:10:20;;;;;;;9.63;3.17;;;12.10;99.90;;;;;;4999862;28;20050;-88
2021/06/13 03:12:48;;;;;;;9.77;2.83;;;12.10;99.90;;;;;;5016911;28;20426;-88
2021/06/13 03:15:15;;;;;;;8.63;3.60;;;12.10;99.90;;;;;;4999518;28;20137;-88
2021/06/13 03:17:43;;;;;;;10.38;3.13;;;12.00;99.90;;;;;;5016770;28;20562;-88
2021/06/13 03:20:11;;;;;;;4.80;2.95;;;12.00;99.90;;;;;;4999824;28;20057;-88
2021/06/13 03:22:40;;;;;;;7.55;2.85;;;12.00;99.90;;;;;;5004978;28;20522;-88
2021/06/13 03:25:08;;;;;;;5.93;2.67;;;12.20;99.90;;;;;;4999546;28;20141;-88
2021/06/13 03:27:37;;;;;;;7.47;2.78;;;12.20;99.90;;;;;;4999503;28;20108;-88
2021/06/13 03:30:05;;;;;;;8.77;3.22;;;12.30;99.90;;;;;;4999720;28;20057;-88
2021/06/13 03:32:32;;;;;;;10.88;3.25;;;12.30;99.90;;;;;;4999442;28;20049;-89
2021/06/13 03:35:00;;;;;;;8.43;3.35;;;12.20;99.90;;;;;;4988067;28;20050;-88
2021/06/13 03:37:28;;;;;;;5.47;2.90;;;12.20;99.90;;;;;;5012516;28;20140;-89
2021/06/13 03:39:56;;;;;;;11.93;4.25;;;12.20;99.90;;;;;;4999373;28;20076;-89
2021/06/13 03:42:23;;;;;;;6.13;2.85;;;12.10;99.90;;;;;;4999137;28;20057;-89
2021/06/13 03:44:51;;;;;;;6.90;3.08;;;12.10;99.90;;;;;;4998770;28;20056;-89
2021/06/13 03:47:19;;;;;;;13.07;3.20;;;12.20;99.90;;;;;;5016124;28;20388;-89
2021/06/13 03:49:49;;;;;;;7.28;3.05;;;12.20;99.90;;;;;;4999048;28;20056;-88
2021/06/13 03:52:17;;;;;;;6.32;2.85;;;12.30;99.90;;;;;;4999192;28;20050;-86
2021/06/13 03:54:44;;;;;;;13.85;3.15;;;12.50;99.90;;;;;;4999004;28;20050;-86
2021/06/13 03:57:13;;;;;;;7.97;3.05;;;12.60;99.90;;;;;;4999896;28;20112;-88
2021/06/13 03:59:43;;;;;;;8.10;2.42;;;12.80;99.90;;;;;;5017324;28;20041;-89
2021/06/13 04:02:10;;;;;;;8.80;3.28;;;12.90;99.90;;;;;;5032116;28;20101;-89
2021/06/13 04:04:43;;;;;;;6.70;2.63;;;13.10;99.90;;;;;;5000751;28;20049;-87
2021/06/13 04:07:11;;;;;;;8.43;2.60;;;13.10;99.90;;;;;;4999434;28;20100;-86
2021/06/13 04:09:39;;;;;;;8.10;2.72;;;13.20;99.90;;;;;;4999007;28;20056;-88
2021/06/13 04:12:08;;;;;;;6.03;2.30;;;13.20;99.90;;;;;;4998838;28;20050;-88
2021/06/13 04:14:36;;;;;;;5.45;2.25;;;13.20;99.90;;;;;;4998380;28;20096;-87
2021/06/13 04:17:03;;;;;;;7.88;2.38;;;13.30;99.90;;;;;;4998597;28;20053;-88
2021/06/13 04:19:31;;;;;;;6.28;2.30;;;13.40;99.90;;;;;;4998858;28;20052;-88
2021/06/13 04:21:59;;;;;;;5.07;1.98;;;13.40;99.90;;;;;;4998678;28;20394;-88
2021/06/13 04:24:27;;;;;;;7.15;2.45;;;13.50;99.90;;;;;;4998377;28;20089;-87
2021/06/13 04:26:56;;;;;;;10.70;2.40;;;13.60;99.90;;;;;;4998354;28;20046;-87
2021/06/13 04:29:22;;;;;;;3.88;1.90;;;13.70;99.90;;;;;;5015682;28;20046;-87
2021/06/13 04:31:49;;;;;;;14.20;2.40;;;13.80;99.90;;;;;;4998418;28;20054;-87
2021/06/13 04:34:16;;;;;;;8.63;2.25;;;13.70;99.90;;;;;;4998667;28;20084;-87
2021/06/13 04:36:43;;;;;;;7.07;2.30;;;13.70;99.90;;;;;;5015549;28;20056;-87
2021/06/13 04:39:09;;;;;;;10.60;2.30;;;13.80;99.90;;;;;;4998002;28;20050;-87
2021/06/13 04:41:36;;;;;;;5.55;2.28;;;13.80;99.90;;;;;;4998002;28;20045;-88
2021/06/13 04:44:03;;;;;;;7.53;2.30;;;13.80;99.90;;;;;;5015466;28;20056;-88
2021/06/13 04:46:31;;;;;;;7.63;2.40;;;13.80;99.90;;;;;;4997792;28;20050;-88
2021/06/13 04:48:58;;;;;;;7.03;2.30;;;13.70;99.90;;;;;;4998091;28;20080;-88
2021/06/13 04:51:27;;;;;;;8.68;2.30;;;13.80;99.90;;;;;;4997661;28;20502;-87
2021/06/13 04:53:59;;;;;;;9.32;2.05;;;13.90;99.90;;;;;;4997828;28;20526;-88
2021/06/13 04:56:51;;;;;;;10.05;2.17;;;13.90;99.90;;;;;;5014958;28;20056;-93
2021/06/13 04:59:18;;;;;;;8.70;2.22;;;13.70;99.90;;;;;;4967847;28;20050;-90
2021/06/13 05:01:44;;;;;;;6.32;2.38;;;13.80;99.90;;;;;;4997878;28;20137;-89
2021/06/13 05:04:11;;;;;;;10.48;2.42;;;13.90;99.90;;;;;;4997806;28;20046;-92
2021/06/13 05:06:42;;;;;;;4.88;2.10;;;13.90;99.90;;;;;;4997751;28;20138;-86
2021/06/13 05:09:10;;;;;;;5.93;2.33;;;14.10;99.90;;;;;;4997546;28;20050;-88
2021/06/13 05:11:38;;;;;;;8.75;3.17;;;14.40;99.90;;;;;;4997843;28;20072;-88
2021/06/13 05:14:05;;;;;;;9.60;3.00;;;14.40;99.90;;;;;;4997675;28;20054;-86
2021/06/13 05:16:33;;;;;;;4.97;2.10;;;14.50;99.90;;;;;;4997628;28;20116;-89
2021/06/13 05:19:00;;;;;;;8.13;2.10;;;14.60;99.90;;;;;;5000071;28;20502;-89
2021/06/13 05:21:26;;;;;;;7.30;2.20;;;14.70;99.90;;;;;;5016703;28;20073;-87
2021/06/13 05:23:53;;;;;;;7.57;2.35;;;14.70;99.90;;;;;;4999685;28;20455;-87
2021/06/13 05:26:20;;;;;;;10.20;2.55;;;14.70;99.90;;;;;;4996667;28;20060;-89
2021/06/13 05:28:46;;;;;;;9.63;2.15;;;14.50;99.90;;;;;;4997512;28;20080;-89
2021/06/13 05:31:13;;;;;;;7.38;2.03;;;14.60;99.90;;;;;;4997228;28;20060;-86
2021/06/13 05:33:40;;;;;;;6.15;1.95;;;14.40;99.90;;;;;;4997319;28;20046;-88
2021/06/13 05:36:07;;;;;;;8.60;2.20;;;14.50;99.90;;;;;;4997236;28;20053;-88
2021/06/13 05:38:34;;;;;;;8.25;2.08;;;14.90;99.90;;;;;;4997264;28;20058;-91
2021/06/13 05:41:00;;;;;;;5.90;1.75;;;15.40;99.90;;;;;;4997151;28;20398;-89
2021/06/13 05:43:27;;;;;;;4.47;1.70;;;15.60;99.90;;;;;;4997169;28;20133;-88
2021/06/13 05:45:58;;;;;;;6.25;1.90;;;16.10;99.90;;;;;;4997136;28;20056;-93
2021/06/13 05:48:25;;;;;;;5.43;1.77;;;17.20;99.90;;;;;;4996752;28;20057;-88
2021/06/13 05:50:52;;;;;;;6.75;2.10;;;17.80;99.90;;;;;;4996943;28;20054;-89
2021/06/13 05:53:19;;;;;;;8.52;2.53;;;18.40;99.90;;;;;;4997212;28;20046;-88
2021/06/13 05:55:46;;;;;;;4.70;1.83;;;18.40;99.90;;;;;;4997587;28;20060;-89
2021/06/13 05:58:13;;;;;;;4.18;1.55;;;18.60;99.90;;;;;;4997043;28;20050;-88
2021/06/13 06:00:40;;;;;;;7.93;2.17;;;19.40;99.90;;;;;;4996992;28;20050;-88
2021/06/13 06:03:07;;;;;;;7.60;1.50;;;19.40;99.90;;;;;;4997039;28;20132;-89
2021/06/13 06:05:34;;;;;;;7.10;2.60;;;19.40;99.90;;;;;;4997642;28;20136;-89
2021/06/13 06:08:02;;;;;;;3.20;2.05;;;18.30;99.90;;;;;;4996896;28;20457;-89
2021/06/13 06:10:31;;;;;;;4.57;1.67;;;17.90;99.90;;;;;;4996785;28;20046;-88
2021/06/13 06:13:00;;;;;;;3.15;1.90;;;17.80;99.90;;;;;;4997092;28;20049;-89
2021/06/13 06:15:33;;;;;;;7.40;1.67;;;17.60;99.90;;;;;;4996891;28;20046;-88
2021/06/13 06:18:00;;;;;;;4.40;1.88;;;17.40;99.90;;;;;;4997289;28;20249;-90
2021/06/13 06:20:29;;;;;;;4.85;1.65;;;16.80;99.90;;;;;;4996770;28;20042;-87
2021/06/13 06:22:56;;;;;;;6.07;1.83;;;16.40;99.90;;;;;;4996727;28;20045;-88
2021/06/13 06:25:24;;;;;;;3.85;1.65;;;16.30;99.90;;;;;;4996457;28;20457;-88
2021/06/13 06:27:53;;;;;;;8.88;2.30;;;16.30;99.90;;;;;;4996821;28;20487;-91
2021/06/13 06:30:21;;;;;;;5.22;1.65;;;16.20;99.90;;;;;;4996559;28;20045;-88
2021/06/13 06:32:48;;;;;;;5.05;2.10;;;16.20;99.90;;;;;;5013919;28;20053;-88
2021/06/13 06:35:16;;;;;;;7.28;2.15;;;16.20;99.90;;;;;;4996950;28;20053;-88
2021/06/13 06:37:43;;;;;;;7.03;2.08;;;15.90;99.90;;;;;;5002196;28;20048;-88
2021/06/13 06:40:12;;;;;;;5.90;2.13;;;15.80;99.90;;;;;;5036561;28;20042;-88
2021/06/13 06:42:39;;;;;;;7.63;2.45;;;15.30;99.90;;;;;;5003228;28;20046;-89
2021/06/13 06:45:12;;;;;;;5.63;2.00;;;15.20;99.90;;;;;;5017438;28;20050;-88
2021/06/13 06:47:41;;;;;;;6.47;2.10;;;15.10;99.90;;;;;;4999995;28;20440;-88
2021/06/13 06:50:09;;;;;;;4.10;1.75;;;15.20;99.90;;;;;;5017374;28;20054;-89
2021/06/13 06:52:36;;;;;;;5.75;1.70;;;15.60;99.90;;;;;;5000129;28;20133;-87
2021/06/13 06:55:04;;;;;;;5.25;1.83;;;16.40;99.90;;;;;;5000199;28;20053;-89
2021/06/13 06:57:32;;;;;;;10.02;2.58;;;19.10;99.90;;;;;;5000208;28;20536;-86
2021/06/13 06:59:58;;;;;;;4.70;1.75;;;21.20;99.90;;;;;;5000432;28;20072;-86
2021/06/13 07:02:25;;;;;;;6.10;1.55;;;23.00;94.90;;;;;;4999904;28;20056;-87
2021/06/13 07:04:52;;;;;;;3.53;1.77;;;25.10;80.10;;;;;;4999989;28;20558;-88
2021/06/13 07:07:19;;;;;;;5.15;1.42;;;23.20;77.30;;;;;;5000092;28;20084;-85
2021/06/13 07:09:46;;;;;;;3.97;1.60;;;22.20;83.60;;;;;;4999770;28;20050;-85
2021/06/13 07:12:12;;;;;;;5.28;1.50;;;23.10;78.50;;;;;;4999312;28;20060;-85
2021/06/13 07:14:39;;;;;;;4.00;1.38;;;23.20;76.70;;;;;;4999578;28;20041;-88
2021/06/13 07:17:06;;;;;;;5.78;1.30;;;23.00;75.80;;;;;;4999240;28;20053;-88
2021/06/13 07:19:32;;;;;;;6.10;1.77;;;24.30;73.30;;;;;;4999531;28;20388;-88
2021/06/13 07:21:59;;;;;;;3.60;1.63;;;23.80;71.10;;;;;;4999741;28;20510;-90
2021/06/13 07:24:26;;;;;;;6.13;1.83;;;22.60;73.10;;;;;;4999405;28;20054;-87
2021/06/13 07:26:53;;;;;;;4.00;2.00;;;23.40;73.50;;;;;;4999099;28;20050;-84
2021/06/13 07:29:20;;;;;;;2.35;1.15;;;24.50;68.50;;;;;;4999198;28;20046;-84
2021/06/13 07:31:47;;;;;;;6.00;2.35;;;26.10;63.00;;;;;;4999058;28;20050;-86
2021/06/13 07:34:14;;;;;;;7.03;2.50;;;25.70;61.40;;;;;;4999306;28;20069;-87
2021/06/13 07:36:40;;;;;;;2.45;1.65;;;24.60;62.10;;;;;;5000046;28;20133;-88
2021/06/13 07:39:07;;;;;;;7.53;2.03;;;24.10;61.20;;;;;;4999741;28;20060;-90
2021/06/13 07:41:35;;;;;;;6.53;2.13;;;22.30;65.00;;;;;;5000976;28;20487;-87
2021/06/13 07:44:04;;;;;;;3.38;1.63;;;21.60;69.00;;;;;;5001967;28;20053;-86
2021/06/13 07:46:35;;;;;;;3.15;1.77;;;22.40;67.40;;;;;;4998731;28;20045;-86
2021/06/13 07:49:03;;;;;;;3.60;2.17;;;24.30;65.30;;;;;;4998147;28;20060;-88
2021/06/13 07:51:30;;;;;;;6.25;2.08;;;25.40;61.80;;;;;;4998975;28;20056;-87
2021/06/13 07:53:57;;;;;;;2.05;1.35;;;24.60;61.10;;;;;;4998995;28;20132;-85
2021/06/13 07:56:24;;;;;;;3.70;1.80;;;25.60;59.50;;;;;;4999471;28;20046;-91
2021/06/13 07:58:51;;;;;;;4.47;2.22;;;24.90;60.70;;;;;;5016007;28;20103;-87
2021/06/13 08:01:18;;;;;;;5.72;1.80;;;26.00;58.40;;;;;;5000871;28;20140;-86
2021/06/13 08:03:44;;;;;;;3.60;1.65;;;27.10;56.50;;;;;;4999110;28;20398;-86
2021/06/13 08:06:11;;;;;;;2.10;1.52;;;27.90;52.20;;;;;;4998684;28;20422;-87
2021/06/13 08:08:38;;;;;;;3.42;1.58;;;28.90;52.10;;;;;;4999415;28;20053;-87
2021/06/13 08:11:07;;;;;;;3.17;1.55;;;28.70;50.90;;;;;;4998771;28;20134;-84
2021/06/13 08:13:33;;;;;;;3.72;1.50;;;30.70;48.90;;;;;;4998794;28;20136;-86
2021/06/13 08:16:00;;;;;;;3.60;1.70;;;28.90;48.70;;;;;;4998779;28;20054;-87
2021/06/13 08:18:28;;;;;;;3.63;2.00;;;27.20;50.20;;;;;;4998573;28;20050;-88
2021/06/13 08:20:57;;;;;;;3.58;1.65;;;26.90;50.30;;;;;;4999087;28;20058;-87
2021/06/13 08:23:24;;;;;;;4.60;1.50;;;27.30;50.30;;;;;;4999086;28;20050;-87
2021/06/13 08:25:51;;;;;;;3.92;1.63;;;27.20;51.30;;;;;;4998335;28;20052;-85
2021/06/13 08:28:19;;;;;;;4.60;1.73;;;29.20;50.80;;;;;;4998574;28;20062;-86
2021/06/13 08:30:47;;;;;;;3.20;1.77;;;29.50;49.50;;;;;;4998405;28;20080;-87
2021/06/13 08:33:14;;;;;;;2.60;1.70;;;28.70;49.20;;;;;;4998398;28;20045;-86
2021/06/13 08:35:41;;;;;;;3.15;1.85;;;26.80;51.30;;;;;;4998150;28;20056;-86
2021/06/13 08:38:08;;;;;;;4.18;1.75;;;26.90;51.60;;;;;;4997844;28;20502;-86
2021/06/13 08:40:36;;;;;;;2.22;1.33;;;26.60;51.80;;;;;;4997771;28;20132;-85
2021/06/13 08:43:03;;;;;;;3.97;1.80;;;26.80;52.00;;;;;;5014960;28;20356;-85
2021/06/13 08:45:34;;;;;;;2.70;1.55;;;26.90;50.70;;;;;;4997930;28;20060;-86
2021/06/13 08:48:03;;;;;;;5.57;1.77;;;25.80;51.70;;;;;;4997809;28;20494;-86
2021/06/13 08:50:31;;;;;;;3.88;1.67;;;24.50;53.50;;;;;;4998022;28;20495;-86
2021/06/13 08:52:58;;;;;;;4.63;1.83;;;24.90;53.00;;;;;;4997812;28;20053;-85
2021/06/13 08:55:27;;;;;;;3.72;1.77;;;26.50;54.20;;;;;;4997532;28;20056;-85
2021/06/13 08:57:55;;;;;;;4.72;1.67;;;27.40;49.70;;;;;;4997819;28;20137;-90
2021/06/13 09:00:28;;;;;;;4.47;1.73;;;28.60;49.30;;;;;;4996934;28;20070;-85
2021/06/13 09:02:57;;;;;;;3.85;1.48;;;27.90;49.60;;;;;;4998724;28;20049;-87
2021/06/13 09:05:26;;;;;;;3.97;1.50;;;27.10;50.10;;;;;;4997568;28;20049;-86
2021/06/13 09:07:58;;;;;;;3.28;1.58;;;28.00;50.80;;;;;;4997735;28;20137;-85
2021/06/13 09:10:28;;;;;;;3.40;1.90;;;26.60;49.50;;;;;;4997827;28;20509;-85
2021/06/13 09:13:24;;;;;;;3.05;1.35;;;27.00;50.50;;;;;;4998039;28;20052;-85
2021/06/13 09:16:03;;;;;;;5.28;1.85;;;26.20;50.40;;;;;;4999658;28;20050;-86
2021/06/13 09:18:39;;;;;;;6.90;1.98;;;24.20;51.40;;;;;;5015409;28;20088;-87
2021/06/13 09:21:09;;;;;;;5.55;1.92;;;24.40;53.80;;;;;;4998485;28;20064;-85
2021/06/13 09:23:38;;;;;;;4.53;1.70;;;25.00;52.70;;;;;;4997425;28;20060;-86
2021/06/13 09:26:08;;;;;;;3.47;1.83;;;24.60;53.20;;;;;;4997387;28;20060;-84
2021/06/13 09:28:37;;;;;;;5.32;1.80;;;26.90;52.50;;;;;;4997220;28;20045;-87
2021/06/13 09:31:06;;;;;;;2.60;1.60;;;28.40;49.60;;;;;;4997496;28;20050;-88
2021/06/13 09:33:35;;;;;;;4.00;1.73;;;28.70;48.80;;;;;;4997286;28;20069;-86
2021/06/13 09:36:05;;;;;;;4.18;1.42;;;28.70;47.80;;;;;;4997180;28;20045;-86
2021/06/13 09:38:37;;;;;;;4.75;1.70;;;29.40;47.50;;;;;;4997436;28;20156;-86
2021/06/13 09:41:09;;;;;;;5.22;1.48;;;30.30;47.20;;;;;;4997522;28;20069;-85
2021/06/13 09:43:41;;;;;;;3.70;1.83;;;30.50;45.90;;;;;;4997210;28;20133;-86
2021/06/13 09:46:11;;;;;;;4.63;1.88;;;30.90;44.10;;;;;;4997522;28;20052;-87
2021/06/13 09:48:39;;;;;;;5.13;2.00;;;29.40;46.20;;;;;;4996724;28;20140;-85
2021/06/13 09:51:12;;;;;;;5.13;1.80;;;28.50;46.50;;;;;;4996811;28;20466;-87
2021/06/13 09:53:46;;;;;;;2.42;1.38;;;27.50;46.50;;;;;;4996995;28;20092;-85
2021/06/13 09:56:19;;;;;;;;;;;28.10;48.10;;;;;;4996874;28;20141;-85
2021/06/13 09:59:10;;;;;;;2.58;1.63;;;29.60;46.60;;;;;;4996503;28;19921;-86
2021/06/13 10:01:41;;;;;;;2.83;1.70;;;29.10;45.60;;;;;;4996691;28;20060;-85
2021/06/13 10:04:32;;;;;;;6.55;2.17;;;28.40;46.30;;;;;;4996872;28;20054;-84
2021/06/13 10:07:20;;;;;;;4.90;2.15;;;27.90;46.70;;;;;;4996850;28;20084;-85
2021/06/13 10:09:52;;;;;;;2.50;1.50;;;28.40;47.60;;;;;;4996849;28;20136;-86
2021/06/13 10:12:21;;;;;;;2.47;1.40;;;30.90;44.60;;;;;;5013703;28;20402;-86
2021/06/13 10:14:49;;;;;;;2.15;1.25;;;31.60;43.60;;;;;;4996511;28;20550;-87
2021/06/13 10:17:17;;;;;;;3.28;1.65;;;31.20;44.30;;;;;;5013777;28;20045;-84
2021/06/13 10:19:46;;;;;;;5.50;1.77;;;30.40;44.20;;;;;;4996306;28;20495;-86
2021/06/13 10:22:15;;;;;;;2.33;1.40;;;29.40;45.50;;;;;;4996690;28;20402;-86
2021/06/13 10:24:46;;;;;;;4.03;1.77;;;29.40;45.60;;;;;;4996785;28;20056;-87
2021/06/13 10:27:15;;;;;;;2.72;1.45;;;31.10;44.20;;;;;;4996548;28;20417;-88
2021/06/13 10:29:45;;;;;;;4.65;1.83;;;34.00;40.80;;;;;;4996952;28;20042;-86
2021/06/13 10:32:13;;;;;;;3.70;1.83;;;35.30;39.40;;;;;;5013666;28;20046;-84
2021/06/13 10:34:39;;;;;;;4.68;1.60;;;34.30;38.50;;;;;;4998853;28;20058;-87
2021/06/13 10:37:09;;;;;;;3.75;1.75;;;33.10;38.50;;;;;;5013956;28;20085;-84
2021/06/13 10:39:37;;;;;;;3.17;1.65;;;31.80;41.70;;;;;;4998358;28;20053;-88
2021/06/13 10:42:10;;;;;;;3.53;1.20;;;31.40;41.40;;;;;;4996494;28;20413;-85
2021/06/13 10:44:45;;;;;;;4.35;1.52;;;31.50;41.20;;;;;;4996416;28;20050;-85
2021/06/13 10:47:12;;;;;;;4.15;2.38;;;33.20;40.30;;;;;;5013696;28;20054;-86
2021/06/13 10:49:43;;;;;;;2.92;1.35;;;32.60;39.70;;;;;;4998181;28;20076;-86
2021/06/13 10:52:18;;;;;;;2.53;1.40;;;33.60;38.60;;;;;;4996432;28;20061;-87
2021/06/13 10:54:54;;;;;;;3.75;1.50;;;31.50;40.10;;;;;;4996428;28;20049;-86
2021/06/13 10:57:24;;;;;;;2.67;1.60;;;30.10;42.00;;;;;;4996653;28;20060;-88
2021/06/13 10:59:57;;;;;;;3.80;1.52;;;29.90;42.80;;;;;;4997418;28;20056;-90
2021/06/13 11:02:34;;;;;;;2.97;1.38;;;29.00;42.90;;;;;;4996710;28;20046;-87
2021/06/13 11:05:04;;;;;;;3.25;1.60;;;28.90;44.70;;;;;;4999555;28;20046;-92
2021/06/13 11:08:04;;;;;;;3.47;1.67;;;28.50;44.70;;;;;;4997913;28;20057;-86
2021/06/13 11:10:29;;;;;;;6.10;1.50;;;28.40;44.40;;;;;;5011748;28;20056;-86
2021/06/13 11:12:56;;;;;;;2.00;1.48;;;29.70;44.50;;;;;;4996195;28;20495;-86
2021/06/13 11:15:34;;;;;;;3.45;1.77;;;28.90;45.70;;;;;;4995931;28;20046;-86
2021/06/13 11:18:18;;;;;;;3.90;1.50;;;29.00;45.20;;;;;;4995937;28;20041;-86
2021/06/13 11:21:05;;;;;;;;;;;28.70;45.70;;;;;;4996724;28;20073;-86
2021/06/13 11:23:32;;;;;;;3.33;1.50;;;27.90;47.20;;;;;;5012381;28;19959;-86
2021/06/13 11:26:00;;;;;;;4.85;1.70;;;26.30;47.40;;;;;;4999426;28;20060;-86
2021/06/13 11:28:28;;;;;;;3.60;1.63;;;25.10;49.10;;;;;;4999568;28;20144;-89
2021/06/13 11:31:16;;;;;;;4.13;2.20;;;23.80;52.00;;;;;;4999683;28;20064;-86
2021/06/13 11:33:45;;;;;;;3.42;1.60;;;23.00;52.80;;;;;;4999509;28;20157;-86
2021/06/13 11:36:15;;;;;;;2.80;1.95;;;22.50;55.30;;;;;;5017741;28;20517;-87
2021/06/13 11:38:44;;;;;;;5.63;1.83;;;22.60;55.30;;;;;;4999854;28;20056;-89
2021/06/13 11:41:27;;;;;;;6.90;1.83;;;22.30;54.90;;;;;;5016264;28;20054;-87
2021/06/13 11:43:55;;;;;;;2.53;1.88;;;22.40;55.20;;;;;;4999268;28;20434;-87
2021/06/13 11:46:38;;;;;;;2.60;1.60;;;23.10;56.70;;;;;;4998918;28;20414;-86
2021/06/13 11:49:14;;;;;;;5.85;1.50;;;23.70;52.20;;;;;;4999039;28;20090;-86
2021/06/13 11:51:50;;;;;;;7.05;1.77;;;23.30;52.50;;;;;;4999596;28;20046;-86
2021/06/13 11:54:41;;;;;;;4.03;1.70;;;22.90;54.60;;;;;;5001275;28;20053;-84
2021/06/13 11:57:13;;;;;;;2.28;1.50;;;22.70;55.10;;;;;;5021658;28;20060;-85
2021/06/13 11:59:45;;;;;;;3.08;1.42;;;22.80;54.80;;;;;;5016267;28;20073;-86
2021/06/13 12:02:17;;;;;;;4.47;2.03;;;22.60;55.30;;;;;;4998996;28;20069;-87
2021/06/13 12:04:46;;;;;;;5.60;1.80;;;23.00;55.30;;;;;;4999177;28;20052;-86
2021/06/13 12:07:17;;;;;;;2.65;1.33;;;22.90;55.50;;;;;;4998564;28;20050;-85
2021/06/13 12:09:48;;;;;;;5.13;1.45;;;22.80;55.30;;;;;;4999248;28;20048;-84
2021/06/13 12:12:19;;;;;;;3.72;1.63;;;22.60;56.80;;;;;;4999567;28;20132;-86
2021/06/13 12:14:47;;;;;;;2.70;1.42;;;22.50;56.90;;;;;;5016801;28;20061;-89
2021/06/13 12:17:22;;;;;;;6.47;2.95;;;22.20;56.50;;;;;;4998999;28;20058;-86
2021/06/13 12:20:01;;;;;;;10.82;6.22;;;22.10;57.50;;;;;;4999239;28;20046;-90
2021/06/13 12:27:50;;;;;;;3.55;1.50;;;21.70;57.50;;;;;;5015494;28;20141;-88
2021/06/13 12:30:20;;;;;;;5.10;1.50;;;21.60;58.40;;;;;;4999731;28;20042;-86
2021/06/13 12:32:55;;;;;;;2.05;1.60;;;21.30;58.10;;;;;;4998834;28;20117;-84
2021/06/13 12:35:31;;;;;;;4.15;1.90;;;21.40;59.10;;;;;;4999408;28;20495;-89
2021/06/13 12:38:26;;;;;;;3.03;1.52;;;21.30;58.60;;;;;;4999600;28;20140;-88
2021/06/13 12:40:55;;;;;;;2.40;1.63;;;21.30;58.40;;;;;;4998541;28;20085;-87
2021/06/13 12:43:40;;;;;;;3.78;1.80;;;21.10;57.80;;;;;;4998129;28;20049;-87
2021/06/13 12:46:11;;;;;;;5.85;1.63;;;21.20;59.00;;;;;;4998165;28;20282;-89
2021/06/13 12:48:39;;;;;;;3.25;1.70;;;21.10;60.90;;;;;;4998295;28;20148;-86
2021/06/13 12:51:07;;;;;;;8.10;1.88;;;21.10;61.70;;;;;;4998298;28;20046;-87
2021/06/13 12:53:45;;;;;;;5.55;2.10;;;21.20;62.40;;;;;;4998174;28;20491;-91
2021/06/13 12:56:14;;;;;;;2.38;1.27;;;21.10;62.20;;;;;;5015740;28;20056;-90
2021/06/13 12:58:45;;;;;;;4.63;1.75;;;20.90;61.10;;;;;;4999304;28;20065;-87
2021/06/13 13:01:13;;;;;;;3.72;1.58;;;20.70;61.50;;;;;;4998327;28;20052;-88
2021/06/13 13:03:46;;;;;;;3.83;1.60;;;20.70;62.10;;;;;;4998673;28;20149;-89
2021/06/13 13:06:13;;;;;;;3.72;1.75;;;20.70;62.20;;;;;;4998018;28;20054;-89